Bafra, Turkey
Current Conditions -  °F | °C
As of 7:50 PM on Tuesday 21 Oct 2014 (Local Time) from LTFH Reporting Station
Clear Clear  
Wind Chill: 50°   Ceiling: Unl
Heat Index: 50°   Visibility: 6mi
Dew Point: 46°   Wind: 1mph
Humidity: 87%   Direction: NA
Pressure: 29.91"   Gusts: NA
Location:  41.57°N, 35.89°E
Report Text: LTFH 211650Z VRB01KT CAVOK 10/08 Q1013 NOSIG
Loading
Personal Weather Stations






























Interactive Weather Map
Tropical Storm Tracking
New forecast layout! Learn more

10-Day Weather Forecast

Advertisements
Track Severe Weather on mobile